createdAt,value
2018-07-20T00:00:13.811Z,22.65
2018-07-20T00:02:42.758Z,23.62
2018-07-20T00:05:11.753Z,24.57
2018-07-20T00:07:40.995Z,25.32
2018-07-20T00:10:09.843Z,25.40
2018-07-20T00:12:38.857Z,26.05
2018-07-20T00:15:08.394Z,27.32
2018-07-20T00:17:37.471Z,26.85
2018-07-20T00:20:06.607Z,27.67
2018-07-20T00:22:36.274Z,28.25
2018-07-20T00:25:05.376Z,27.20
2018-07-20T00:27:34.362Z,26.57
2018-07-20T00:30:03.291Z,27.27
2018-07-20T00:32:32.449Z,24.85
2018-07-20T00:35:02.313Z,25.45
2018-07-20T00:37:31.587Z,24.72
2018-07-20T00:40:00.463Z,24.45
2018-07-20T00:42:29.776Z,23.57
2018-07-20T00:44:58.634Z,26.27
2018-07-20T00:47:27.437Z,21.15
2018-07-20T00:49:56.248Z,21.52
2018-07-20T00:52:26.678Z,21.85
2018-07-20T00:54:55.871Z,21.55
2018-07-20T00:57:24.943Z,22.45
2018-07-20T00:59:53.614Z,21.15
2018-07-20T01:02:22.656Z,21.17
2018-07-20T01:04:51.745Z,21.12
2018-07-20T01:07:21.393Z,20.55
2018-07-20T01:09:51.469Z,20.50
2018-07-20T01:12:20.238Z,20.17
2018-07-20T01:14:49.767Z,19.75
2018-07-20T01:17:18.759Z,20.12
2018-07-20T01:19:47.618Z,19.62
2018-07-20T01:22:16.779Z,19.90
2018-07-20T01:24:46.432Z,18.73
2018-07-20T01:29:46.271Z,18.75
2018-07-20T01:32:15.215Z,19.00
2018-07-20T01:34:44.179Z,19.62
2018-07-20T01:37:13.687Z,19.87
2018-07-20T01:39:42.683Z,19.32
2018-07-20T01:42:12.606Z,19.02
2018-07-20T01:44:42.142Z,19.23
2018-07-20T01:47:11.246Z,19.37
2018-07-20T01:49:40.286Z,18.12
2018-07-20T01:52:09.567Z,19.42
2018-07-20T01:54:38.763Z,22.15
2018-07-20T01:57:07.791Z,19.80
2018-07-20T01:59:36.698Z,19.90
2018-07-20T02:02:05.511Z,18.07
2018-07-20T02:04:34.620Z,19.02
2018-07-20T02:07:03.772Z,17.62
2018-07-20T02:09:33.062Z,17.90
2018-07-20T02:12:02.141Z,17.77
2018-07-20T02:14:31.348Z,22.73
2018-07-20T02:17:00.857Z,20.55
2018-07-20T02:19:31.093Z,18.40
2018-07-20T02:22:00.609Z,16.77
2018-07-20T02:24:29.589Z,15.95
2018-07-20T02:26:58.872Z,17.60
2018-07-20T02:29:28.164Z,17.45
2018-07-20T02:31:57.080Z,17.98
2018-07-20T02:34:26.275Z,18.07
2018-07-20T02:36:55.519Z,17.42
2018-07-20T02:39:24.658Z,18.05
2018-07-20T02:41:54.203Z,19.10
2018-07-20T02:44:23.862Z,18.37
2018-07-20T02:46:52.704Z,18.17
2018-07-20T02:49:22.620Z,18.75
2018-07-20T02:51:52.132Z,18.30
2018-07-20T02:54:21.267Z,18.02
2018-07-20T02:56:50.196Z,20.55
2018-07-20T02:59:19.775Z,21.15
2018-07-20T03:01:48.618Z,20.35
2018-07-20T03:04:17.563Z,20.23
2018-07-20T03:06:46.647Z,20.65
2018-07-20T03:09:15.577Z,20.57
2018-07-20T03:11:44.718Z,20.65
2018-07-20T03:14:14.659Z,20.97
2018-07-20T03:16:43.616Z,22.13
2018-07-20T03:19:12.475Z,21.62
2018-07-20T03:21:42.123Z,21.90
2018-07-20T03:24:11.809Z,22.35
2018-07-20T03:26:40.905Z,23.02
2018-07-20T03:29:09.959Z,24.80
2018-07-20T03:31:39.142Z,22.55
2018-07-20T03:34:07.900Z,22.98
2018-07-20T03:36:37.500Z,23.50
2018-07-20T03:39:08.639Z,22.27
2018-07-20T03:41:38.571Z,22.98
2018-07-20T03:44:08.239Z,23.20
2018-07-20T03:46:37.715Z,23.00
2018-07-20T03:49:07.453Z,21.70
2018-07-20T03:51:36.379Z,22.65
2018-07-20T03:54:05.211Z,21.00
2018-07-20T03:56:34.731Z,22.87
2018-07-20T03:59:04.435Z,21.57
2018-07-20T04:01:34.029Z,21.97
2018-07-20T04:04:03.222Z,28.62
2018-07-20T04:06:32.303Z,24.82
2018-07-20T04:09:01.497Z,22.70
2018-07-20T04:11:31.223Z,21.37
2018-07-20T04:14:00.494Z,19.95
2018-07-20T04:16:30.453Z,20.23
2018-07-20T04:19:00.476Z,27.48
2018-07-20T04:21:30.496Z,19.12
2018-07-20T04:24:00.016Z,17.25
2018-07-20T04:26:29.602Z,17.37
2018-07-20T04:28:58.984Z,22.70
2018-07-20T04:31:27.885Z,14.95
2018-07-20T04:33:56.998Z,16.55
2018-07-20T04:36:26.134Z,14.30
2018-07-20T04:38:55.158Z,14.78
2018-07-20T04:41:24.573Z,20.10
2018-07-20T04:43:54.132Z,16.02
2018-07-20T04:46:23.482Z,14.63
2018-07-20T04:48:53.010Z,15.95
2018-07-20T04:51:22.203Z,14.45
2018-07-20T04:53:52.123Z,14.53
2018-07-20T04:56:21.027Z,16.23
2018-07-20T04:58:52.578Z,15.43
2018-07-20T05:01:21.336Z,16.45
2018-07-20T05:03:51.295Z,18.40
2018-07-20T05:06:20.129Z,19.32
2018-07-20T05:08:49.796Z,22.25
2018-07-20T05:11:19.564Z,16.55
2018-07-20T05:13:48.680Z,18.35
2018-07-20T05:16:20.143Z,16.25
2018-07-20T05:18:49.302Z,15.00
2018-07-20T05:21:18.424Z,17.52
2018-07-20T05:23:47.810Z,15.68
2018-07-20T05:26:17.134Z,18.25
2018-07-20T05:28:46.050Z,12.78
2018-07-20T05:31:15.489Z,17.20
2018-07-20T05:33:45.400Z,12.25
2018-07-20T05:36:15.049Z,12.00
2018-07-20T05:38:44.995Z,16.00
2018-07-20T05:41:14.563Z,14.13
2018-07-20T05:43:44.610Z,12.93
2018-07-20T05:46:15.042Z,12.80
2018-07-20T05:48:44.285Z,10.85
2018-07-20T05:51:13.695Z,12.35
2018-07-20T05:53:42.858Z,12.70
2018-07-20T05:56:12.037Z,11.53
2018-07-20T05:58:41.683Z,8.75
2018-07-20T06:01:10.417Z,10.93
2018-07-20T06:03:39.736Z,16.23
2018-07-20T06:06:08.454Z,9.20
2018-07-20T06:08:37.375Z,8.58
2018-07-20T06:11:06.912Z,12.98
2018-07-20T06:13:36.157Z,10.65
2018-07-20T06:16:06.011Z,9.90
2018-07-20T06:18:35.549Z,9.50
2018-07-20T06:21:04.741Z,13.60
2018-07-20T06:23:34.067Z,8.45
2018-07-20T06:26:03.204Z,9.23
2018-07-20T06:28:33.055Z,10.38
2018-07-20T06:31:02.066Z,9.70
2018-07-20T06:33:31.044Z,9.75
2018-07-20T06:36:00.498Z,9.28
2018-07-20T06:38:29.654Z,9.15
2018-07-20T06:40:58.285Z,8.93
2018-07-20T06:43:27.829Z,10.85
2018-07-20T06:45:56.904Z,9.38
2018-07-20T06:48:26.304Z,8.48
2018-07-20T06:50:56.907Z,7.37
2018-07-20T06:53:25.671Z,8.00
2018-07-20T06:55:54.655Z,11.60
2018-07-20T06:58:23.678Z,7.87
2018-07-20T07:00:53.363Z,7.83
2018-07-20T07:03:22.557Z,6.83
2018-07-20T07:05:51.854Z,5.95
2018-07-20T07:08:20.972Z,7.05
2018-07-20T07:10:50.176Z,6.47
2018-07-20T07:13:20.272Z,7.00
2018-07-20T07:15:49.175Z,6.37
2018-07-20T07:18:18.378Z,6.10
2018-07-20T07:20:47.380Z,6.75
2018-07-20T07:23:16.471Z,5.72
2018-07-20T07:25:45.570Z,6.97
2018-07-20T07:28:14.795Z,6.78
2018-07-20T07:30:43.868Z,5.90
2018-07-20T07:33:12.957Z,6.00
2018-07-20T07:35:42.486Z,6.85
2018-07-20T07:38:11.438Z,6.62
2018-07-20T07:40:43.682Z,6.33
2018-07-20T07:43:13.104Z,6.67
2018-07-20T07:45:42.363Z,6.28
2018-07-20T07:48:11.759Z,10.05
2018-07-20T07:50:40.737Z,6.17
2018-07-20T07:53:10.454Z,7.55
2018-07-20T07:55:39.596Z,5.50
2018-07-20T07:58:09.894Z,7.28
2018-07-20T08:00:39.274Z,5.53
2018-07-20T08:03:09.807Z,6.20
2018-07-20T08:05:40.216Z,5.75
2018-07-20T08:08:10.676Z,6.28
2018-07-20T08:10:39.662Z,4.47
2018-07-20T08:13:08.595Z,4.53
2018-07-20T08:15:39.673Z,4.55
2018-07-20T08:18:09.488Z,5.75
2018-07-20T08:20:38.748Z,4.03
2018-07-20T08:23:08.478Z,4.62
2018-07-20T08:25:37.915Z,6.00
2018-07-20T08:28:07.385Z,5.05
2018-07-20T08:30:37.159Z,4.67
2018-07-20T08:33:06.712Z,6.00
2018-07-20T08:35:36.470Z,5.17
2018-07-20T08:38:05.650Z,4.87
2018-07-20T08:40:34.535Z,5.55
2018-07-20T08:43:03.723Z,4.67
2018-07-20T08:45:33.153Z,4.53
2018-07-20T08:48:02.425Z,4.45
2018-07-20T08:50:31.419Z,4.25
2018-07-20T08:53:00.658Z,4.20
2018-07-20T08:55:29.790Z,11.22
2018-07-20T08:57:59.386Z,5.03
2018-07-20T09:00:28.458Z,4.30
2018-07-20T09:02:57.400Z,5.72
2018-07-20T09:05:26.400Z,4.53
2018-07-20T09:07:55.474Z,3.87
2018-07-20T09:10:24.511Z,3.62
2018-07-20T09:12:53.581Z,5.33
2018-07-20T09:15:22.919Z,9.73
2018-07-20T09:17:51.850Z,4.10
2018-07-20T09:20:20.887Z,3.90
2018-07-20T09:22:50.222Z,4.25
2018-07-20T09:25:19.186Z,8.95
2018-07-20T09:27:48.178Z,4.45
2018-07-20T09:30:17.720Z,2.90
2018-07-20T09:32:46.653Z,3.25
2018-07-20T09:35:16.184Z,4.22
2018-07-20T09:37:45.601Z,5.03
2018-07-20T09:40:15.194Z,3.25
2018-07-20T09:42:44.635Z,3.27
2018-07-20T09:45:14.123Z,3.35
2018-07-20T09:47:43.082Z,2.85
2018-07-20T09:50:12.122Z,3.02
2018-07-20T09:52:41.509Z,3.00
2018-07-20T09:55:10.498Z,5.97
2018-07-20T09:57:39.490Z,4.08
2018-07-20T10:00:09.415Z,2.37
2018-07-20T10:02:38.267Z,3.58
2018-07-20T10:05:07.370Z,3.50
2018-07-20T10:07:36.601Z,3.08
2018-07-20T10:10:05.504Z,2.87
2018-07-20T10:12:34.550Z,5.00
2018-07-20T10:15:03.702Z,2.50
2018-07-20T10:17:32.550Z,2.50
2018-07-20T10:20:01.878Z,3.20
2018-07-20T10:22:31.070Z,2.45
2018-07-20T10:25:00.072Z,2.72
2018-07-20T10:27:29.255Z,3.02
2018-07-20T10:29:58.521Z,2.98
2018-07-20T10:32:27.757Z,5.10
2018-07-20T10:34:56.832Z,3.40
2018-07-20T10:37:25.874Z,3.95
2018-07-20T10:39:55.051Z,4.70
2018-07-20T10:42:23.950Z,3.47
2018-07-20T10:44:53.541Z,5.70
2018-07-20T10:47:22.551Z,10.23
2018-07-20T10:49:51.549Z,2.80
2018-07-20T10:52:20.506Z,2.17
2018-07-20T10:54:49.210Z,2.10
2018-07-20T10:57:18.041Z,2.35
2018-07-20T10:59:47.474Z,2.58
2018-07-20T11:02:16.783Z,2.05
2018-07-20T11:04:46.224Z,2.65
2018-07-20T11:07:15.186Z,3.35
2018-07-20T11:09:44.212Z,4.25
2018-07-20T11:12:13.287Z,2.87
2018-07-20T11:14:42.867Z,2.35
2018-07-20T11:17:11.707Z,2.65
2018-07-20T11:19:40.608Z,2.90
2018-07-20T11:22:10.446Z,2.27
2018-07-20T11:24:39.536Z,2.50
2018-07-20T11:27:08.306Z,3.60
2018-07-20T11:29:37.326Z,3.40
2018-07-20T11:32:06.201Z,3.45
2018-07-20T11:34:35.201Z,4.17
2018-07-20T11:37:04.301Z,4.03
2018-07-20T11:39:33.308Z,2.95
2018-07-20T11:42:02.586Z,3.87
2018-07-20T11:44:32.444Z,2.92
2018-07-20T11:47:02.014Z,5.85
2018-07-20T11:49:32.054Z,2.50
2018-07-20T11:52:01.263Z,2.70
2018-07-20T11:54:30.444Z,3.22
2018-07-20T11:57:00.347Z,3.00
2018-07-20T11:59:30.168Z,2.65
2018-07-20T12:01:59.344Z,2.80
2018-07-20T12:04:28.542Z,3.75
2018-07-20T12:06:57.667Z,6.47
2018-07-20T12:09:26.729Z,3.72
2018-07-20T12:11:55.624Z,5.47
2018-07-20T12:14:24.958Z,5.65
2018-07-20T12:16:54.039Z,4.10
2018-07-20T12:19:23.078Z,3.05
2018-07-20T12:21:52.173Z,4.42
2018-07-20T12:24:21.214Z,3.85
2018-07-20T12:26:50.015Z,3.50
2018-07-20T12:29:19.245Z,4.17
2018-07-20T12:31:48.305Z,9.35
2018-07-20T12:34:16.994Z,3.08
2018-07-20T12:36:46.214Z,7.00
2018-07-20T12:39:15.595Z,5.80
2018-07-20T12:41:44.446Z,3.50
2018-07-20T12:44:13.990Z,2.55
2018-07-20T12:46:43.111Z,3.80
2018-07-20T12:49:12.205Z,2.83
2018-07-20T12:51:41.417Z,4.05
2018-07-20T12:54:10.560Z,3.45
2018-07-20T12:56:40.303Z,2.87
2018-07-20T12:59:09.507Z,5.05
2018-07-20T13:01:38.370Z,4.95
2018-07-20T13:04:07.335Z,3.27
2018-07-20T13:06:37.492Z,5.35
2018-07-20T13:09:10.448Z,3.27
2018-07-20T13:11:39.865Z,6.78
2018-07-20T13:14:09.600Z,5.47
2018-07-20T13:16:39.741Z,5.08
2018-07-20T13:19:09.740Z,3.60
2018-07-20T13:21:45.674Z,4.33
2018-07-20T13:24:14.639Z,5.40
2018-07-20T13:26:43.642Z,2.95
2018-07-20T13:29:13.815Z,2.92
2018-07-20T13:31:42.907Z,2.72
2018-07-20T13:34:11.766Z,3.62
2018-07-20T13:36:41.170Z,5.45
2018-07-20T13:39:11.618Z,2.80
2018-07-20T13:41:41.075Z,2.65
2018-07-20T13:44:10.716Z,2.27
2018-07-20T13:46:39.838Z,2.52
2018-07-20T13:49:08.940Z,2.47
2018-07-20T13:51:38.304Z,2.20
2018-07-20T13:54:07.664Z,4.00
2018-07-20T13:56:36.715Z,4.95
2018-07-20T13:59:06.071Z,2.47
2018-07-20T14:01:35.211Z,3.25
2018-07-20T14:04:04.073Z,6.35
2018-07-20T14:06:33.071Z,10.28
2018-07-20T14:09:01.895Z,5.25
2018-07-20T14:11:30.979Z,4.90
2018-07-20T14:14:00.268Z,2.87
2018-07-20T14:16:29.024Z,3.10
2018-07-20T14:18:57.666Z,3.15
2018-07-20T14:21:26.967Z,3.15
2018-07-20T14:23:55.791Z,5.20
2018-07-20T14:26:24.821Z,3.92
2018-07-20T14:28:54.822Z,5.50
2018-07-20T14:31:24.047Z,3.60
2018-07-20T14:33:53.106Z,4.55
2018-07-20T14:36:22.530Z,4.65
2018-07-20T14:38:51.481Z,3.58
2018-07-20T14:41:20.459Z,4.20
2018-07-20T14:43:49.809Z,3.58
2018-07-20T14:46:19.004Z,4.42
2018-07-20T14:48:47.935Z,5.33
2018-07-20T14:51:16.848Z,6.08
2018-07-20T14:53:46.504Z,3.92
2018-07-20T14:56:15.581Z,6.60
2018-07-20T14:58:45.838Z,4.03
2018-07-20T15:01:15.094Z,4.03
2018-07-20T15:03:44.128Z,5.25
2018-07-20T15:06:13.513Z,4.28
2018-07-20T15:08:42.745Z,3.95
2018-07-20T15:11:11.563Z,5.22
2018-07-20T15:13:40.891Z,6.30
2018-07-20T15:16:09.999Z,4.70
2018-07-20T15:18:39.013Z,4.97
2018-07-20T15:21:08.122Z,4.67
2018-07-20T15:23:36.977Z,4.75
2018-07-20T15:26:05.941Z,3.65
2018-07-20T15:28:35.196Z,3.90
2018-07-20T15:31:04.174Z,3.52
2018-07-20T15:33:33.667Z,4.78
2018-07-20T15:36:02.696Z,5.00
2018-07-20T15:38:31.564Z,4.75
2018-07-20T15:41:00.665Z,3.85
2018-07-20T15:43:29.674Z,3.98
2018-07-20T15:46:05.966Z,4.28
2018-07-20T15:48:27.490Z,3.72
2018-07-20T15:50:56.656Z,3.75
2018-07-20T15:53:40.621Z,3.90
2018-07-20T15:55:54.614Z,3.60
2018-07-20T15:58:23.969Z,4.03
2018-07-20T16:00:52.971Z,3.50
2018-07-20T16:03:23.346Z,3.90
2018-07-20T16:05:52.660Z,3.62
2018-07-20T16:08:22.178Z,4.50
2018-07-20T16:10:51.939Z,2.72
2018-07-20T16:13:20.813Z,8.45
2018-07-20T16:15:50.278Z,2.33
2018-07-20T16:18:19.396Z,3.30
2018-07-20T16:20:48.678Z,3.10
2018-07-20T16:23:17.777Z,2.12
2018-07-20T16:25:46.990Z,2.40
2018-07-20T16:28:16.594Z,1.70
2018-07-20T16:30:45.459Z,2.00
2018-07-20T16:33:14.584Z,4.60
2018-07-20T16:35:43.923Z,1.50
2018-07-20T16:38:13.171Z,2.25
2018-07-20T16:40:42.161Z,3.10
2018-07-20T16:43:11.386Z,5.50
2018-07-20T16:45:40.439Z,9.30
2018-07-20T16:48:09.351Z,4.08
2018-07-20T16:50:38.509Z,5.53
2018-07-20T16:53:07.339Z,1.80
2018-07-20T16:55:36.415Z,3.58
2018-07-20T16:58:05.520Z,2.75
2018-07-20T17:00:35.344Z,6.87
2018-07-20T17:03:04.220Z,4.87
2018-07-20T17:05:33.264Z,4.60
2018-07-20T17:08:02.015Z,5.92
2018-07-20T17:10:31.053Z,5.17
2018-07-20T17:13:01.046Z,3.02
2018-07-20T17:15:30.027Z,3.77
2018-07-20T17:17:59.020Z,7.37
2018-07-20T17:20:28.135Z,3.90
2018-07-20T17:22:57.192Z,3.67
2018-07-20T17:25:26.517Z,3.42
2018-07-20T17:27:55.942Z,2.52
2018-07-20T17:30:25.808Z,2.83
2018-07-20T17:32:54.833Z,2.47
2018-07-20T17:35:24.330Z,2.85
2018-07-20T17:37:53.142Z,4.37
2018-07-20T17:40:22.709Z,2.92
2018-07-20T17:42:51.924Z,3.25
2018-07-20T17:45:21.025Z,8.35
2018-07-20T17:47:49.925Z,6.35
2018-07-20T17:50:19.433Z,5.08
2018-07-20T17:52:48.234Z,3.33
2018-07-20T17:55:17.284Z,6.40
2018-07-20T17:57:46.763Z,11.10
2018-07-20T18:00:15.809Z,5.97
2018-07-20T18:02:44.617Z,6.97
2018-07-20T18:05:14.843Z,4.67
2018-07-20T18:07:44.098Z,3.90
2018-07-20T18:10:13.626Z,4.35
2018-07-20T18:12:43.170Z,13.88
2018-07-20T18:15:12.148Z,5.17
2018-07-20T18:17:41.372Z,6.65
2018-07-20T18:20:11.588Z,7.65
2018-07-20T18:22:42.818Z,11.18
2018-07-20T18:25:13.403Z,6.15
2018-07-20T18:27:42.341Z,6.17
2018-07-20T18:30:11.484Z,19.80
2018-07-20T18:32:41.099Z,12.98
2018-07-20T18:35:10.663Z,10.28
2018-07-20T18:37:40.470Z,14.83
2018-07-20T18:40:09.888Z,11.97
2018-07-20T18:42:39.060Z,12.98
2018-07-20T18:45:08.695Z,13.13
2018-07-20T18:47:38.372Z,13.18
2018-07-20T18:50:08.572Z,12.55
2018-07-20T18:52:37.696Z,8.13
2018-07-20T18:55:06.858Z,8.13
2018-07-20T18:57:35.796Z,6.50
2018-07-20T19:00:05.242Z,12.05
2018-07-20T19:02:34.523Z,7.83
2018-07-20T19:05:03.982Z,4.97
2018-07-20T19:07:33.156Z,5.25
2018-07-20T19:10:02.506Z,15.00
2018-07-20T19:12:33.268Z,8.38
2018-07-20T19:15:02.257Z,5.47
2018-07-20T19:17:32.422Z,7.15
2018-07-20T19:20:01.361Z,7.03
2018-07-20T19:22:30.227Z,8.03
2018-07-20T19:24:59.352Z,4.30
2018-07-20T19:27:28.194Z,6.62
2018-07-20T19:29:58.281Z,5.78
2018-07-20T19:32:28.290Z,5.22
2018-07-20T19:34:57.359Z,8.85
2018-07-20T19:37:26.448Z,8.85
2018-07-20T19:39:55.248Z,8.45
2018-07-20T19:42:24.303Z,7.92
2018-07-20T19:44:53.351Z,7.12
2018-07-20T19:47:22.657Z,7.50
2018-07-20T19:49:51.504Z,11.60
2018-07-20T19:52:20.590Z,18.62
2018-07-20T19:54:50.371Z,13.55
2018-07-20T19:57:19.112Z,18.17
2018-07-20T19:59:47.912Z,7.00
2018-07-20T20:02:17.360Z,10.53
2018-07-20T20:04:46.907Z,7.65
2018-07-20T20:07:15.919Z,8.15
2018-07-20T20:09:45.654Z,4.00
2018-07-20T20:12:15.639Z,11.40
2018-07-20T20:14:44.637Z,10.80
2018-07-20T20:17:14.675Z,5.92
2018-07-20T20:19:43.745Z,5.20
2018-07-20T20:22:12.666Z,11.75
2018-07-20T20:24:41.804Z,15.72
2018-07-20T20:27:10.743Z,10.85
2018-07-20T20:29:39.726Z,31.33
2018-07-20T20:32:08.657Z,28.62
2018-07-20T20:34:38.323Z,12.03
2018-07-20T20:37:07.900Z,27.10
2018-07-20T20:39:37.033Z,10.25
2018-07-20T20:42:06.306Z,13.43
2018-07-20T20:44:35.334Z,17.10
2018-07-20T20:47:05.177Z,12.63
2018-07-20T20:49:34.154Z,14.83
2018-07-20T20:52:04.115Z,7.15
2018-07-20T20:54:33.100Z,18.35
2018-07-20T20:57:02.355Z,9.65
2018-07-20T20:59:31.152Z,8.23
2018-07-20T21:02:00.570Z,16.82
2018-07-20T21:04:30.016Z,15.98
2018-07-20T21:06:59.056Z,51.73
2018-07-20T21:09:28.281Z,11.53
2018-07-20T21:11:57.576Z,16.48
2018-07-20T21:14:26.655Z,27.00
2018-07-20T21:16:56.263Z,10.00
2018-07-20T21:19:25.833Z,10.72
2018-07-20T21:21:55.050Z,10.90
2018-07-20T21:24:23.981Z,4.62
2018-07-20T21:26:53.287Z,17.85
2018-07-20T21:29:22.237Z,18.52
2018-07-20T21:31:50.931Z,4.28
2018-07-20T21:34:19.966Z,22.93
2018-07-20T21:36:49.165Z,9.90
2018-07-20T21:39:18.184Z,29.23
2018-07-20T21:41:47.535Z,26.77
2018-07-20T21:44:16.595Z,17.90
2018-07-20T21:46:45.423Z,8.70
2018-07-20T21:49:14.159Z,7.90
2018-07-20T21:51:43.098Z,6.95
2018-07-20T21:54:13.459Z,14.35
2018-07-20T21:56:42.849Z,14.83
2018-07-20T21:59:11.728Z,13.72
2018-07-20T22:01:40.610Z,9.53
2018-07-20T22:04:10.538Z,10.35
2018-07-20T22:06:39.520Z,12.60
2018-07-20T22:09:10.260Z,11.80
2018-07-20T22:11:39.799Z,6.03
2018-07-20T22:14:09.335Z,5.40
2018-07-20T22:16:38.381Z,8.88
2018-07-20T22:19:07.573Z,8.18
2018-07-20T22:21:36.494Z,7.70
2018-07-20T22:24:05.455Z,18.00
2018-07-20T22:26:35.624Z,12.53
2018-07-20T22:29:05.181Z,12.85
2018-07-20T22:31:34.401Z,7.22
2018-07-20T22:34:03.599Z,17.20
2018-07-20T22:36:32.595Z,26.07
2018-07-20T22:39:08.361Z,9.95
2018-07-20T22:41:37.532Z,13.00
2018-07-20T22:44:06.834Z,22.82
2018-07-20T22:46:35.716Z,12.68
2018-07-20T22:49:05.743Z,12.55
2018-07-20T22:51:34.743Z,3.85
2018-07-20T22:54:03.944Z,2.60
2018-07-20T22:56:33.094Z,2.08
2018-07-20T22:59:02.436Z,2.47
2018-07-20T23:01:31.147Z,2.60
2018-07-20T23:03:59.790Z,5.85
2018-07-20T23:06:29.303Z,5.15
2018-07-20T23:08:58.484Z,16.73
2018-07-20T23:11:27.381Z,5.45
2018-07-20T23:13:57.335Z,9.23
2018-07-20T23:16:25.970Z,5.22
2018-07-20T23:18:55.067Z,2.92
2018-07-20T23:21:27.858Z,9.13
2018-07-20T23:23:57.789Z,11.63
2018-07-20T23:26:27.839Z,5.92
2018-07-20T23:28:56.848Z,2.95
2018-07-20T23:31:25.922Z,9.43
2018-07-20T23:33:55.371Z,6.58
2018-07-20T23:36:24.118Z,4.65
2018-07-20T23:38:52.942Z,8.60
2018-07-20T23:41:22.705Z,7.62
2018-07-20T23:43:51.604Z,16.50
2018-07-20T23:46:21.009Z,8.95
2018-07-20T23:48:50.410Z,24.82
2018-07-20T23:51:19.222Z,2.83
2018-07-20T23:53:48.371Z,6.42
2018-07-20T23:56:17.619Z,10.23
2018-07-20T23:58:46.672Z,6.72
